sensor_id;sensor_type;location;lat;lon;timestamp;pressure;altitude;pressure_sealevel;temperature;humidity
71996;BME280;59862;47.732;7.346;2022-07-06T00:02:07;98598.59;;;18.91;49.78
71996;BME280;59862;47.732;7.346;2022-07-06T00:04:35;98609.73;;;18.91;49.62
71996;BME280;59862;47.732;7.346;2022-07-06T00:07:02;98609.53;;;18.90;49.89
71996;BME280;59862;47.732;7.346;2022-07-06T00:09:30;98608.47;;;18.85;50.24
71996;BME280;59862;47.732;7.346;2022-07-06T00:11:57;98607.05;;;18.81;50.00
71996;BME280;59862;47.732;7.346;2022-07-06T00:14:25;98606.44;;;18.78;49.91
71996;BME280;59862;47.732;7.346;2022-07-06T00:16:52;98602.79;;;18.71;50.53
71996;BME280;59862;47.732;7.346;2022-07-06T00:19:19;98603.39;;;18.70;50.46
71996;BME280;59862;47.732;7.346;2022-07-06T00:21:47;98604.57;;;18.69;51.24
71996;BME280;59862;47.732;7.346;2022-07-06T00:24:14;98601.73;;;18.62;51.35
71996;BME280;59862;47.732;7.346;2022-07-06T00:26:44;98603.03;;;18.55;51.64
71996;BME280;59862;47.732;7.346;2022-07-06T00:29:12;98599.59;;;18.48;51.33
71996;BME280;59862;47.732;7.346;2022-07-06T00:31:39;98603.73;;;18.45;51.40
71996;BME280;59862;47.732;7.346;2022-07-06T00:34:07;98599.53;;;18.41;51.92
71996;BME280;59862;47.732;7.346;2022-07-06T00:36:34;98606.05;;;18.35;52.26
71996;BME280;59862;47.732;7.346;2022-07-06T00:39:02;98607.58;;;18.29;52.09
71996;BME280;59862;47.732;7.346;2022-07-06T00:41:29;98606.15;;;18.26;52.72
71996;BME280;59862;47.732;7.346;2022-07-06T00:43:57;98610.81;;;18.18;52.62
71996;BME280;59862;47.732;7.346;2022-07-06T00:46:33;98614.75;;;18.14;52.77
71996;BME280;59862;47.732;7.346;2022-07-06T00:48:58;98614.88;;;18.08;52.87
71996;BME280;59862;47.732;7.346;2022-07-06T00:51:34;98623.19;;;18.04;52.93
71996;BME280;59862;47.732;7.346;2022-07-06T00:53:59;98626.53;;;18.00;53.18
71996;BME280;59862;47.732;7.346;2022-07-06T00:56:30;98619.91;;;17.95;53.94
71996;BME280;59862;47.732;7.346;2022-07-06T00:59:03;98622.27;;;17.93;53.81
71996;BME280;59862;47.732;7.346;2022-07-06T01:01:28;98618.31;;;17.77;54.06
71996;BME280;59862;47.732;7.346;2022-07-06T01:03:56;98621.91;;;17.78;54.50
71996;BME280;59862;47.732;7.346;2022-07-06T01:06:23;98617.27;;;17.72;54.10
71996;BME280;59862;47.732;7.346;2022-07-06T01:08:51;98622.03;;;17.71;54.67
71996;BME280;59862;47.732;7.346;2022-07-06T01:11:19;98617.64;;;17.70;55.17
71996;BME280;59862;47.732;7.346;2022-07-06T01:13:48;98615.55;;;17.64;55.05
71996;BME280;59862;47.732;7.346;2022-07-06T01:16:17;98617.10;;;17.61;54.58
71996;BME280;59862;47.732;7.346;2022-07-06T01:18:45;98615.88;;;17.59;54.71
71996;BME280;59862;47.732;7.346;2022-07-06T01:21:14;98616.47;;;17.58;55.29
71996;BME280;59862;47.732;7.346;2022-07-06T01:23:45;98619.63;;;17.57;55.65
71996;BME280;59862;47.732;7.346;2022-07-06T01:26:14;98614.16;;;17.51;55.54
71996;BME280;59862;47.732;7.346;2022-07-06T01:28:44;98618.66;;;17.46;55.42
71996;BME280;59862;47.732;7.346;2022-07-06T01:31:15;98613.69;;;17.45;55.96
71996;BME280;59862;47.732;7.346;2022-07-06T01:33:44;98608.67;;;17.41;55.90
71996;BME280;59862;47.732;7.346;2022-07-06T01:36:12;98611.61;;;17.38;56.24
71996;BME280;59862;47.732;7.346;2022-07-06T01:38:53;98612.95;;;17.35;56.33
71996;BME280;59862;47.732;7.346;2022-07-06T01:41:23;98617.67;;;17.31;56.78
71996;BME280;59862;47.732;7.346;2022-07-06T01:43:51;98617.78;;;17.25;57.09
71996;BME280;59862;47.732;7.346;2022-07-06T01:46:18;98619.82;;;17.15;57.42
71996;BME280;59862;47.732;7.346;2022-07-06T01:48:46;98614.75;;;17.07;57.78
71996;BME280;59862;47.732;7.346;2022-07-06T01:51:14;98610.53;;;17.03;57.58
71996;BME280;59862;47.732;7.346;2022-07-06T01:53:42;98613.89;;;17.03;57.86
71996;BME280;59862;47.732;7.346;2022-07-06T01:56:10;98607.48;;;16.99;58.04
71996;BME280;59862;47.732;7.346;2022-07-06T01:58:38;98613.36;;;16.94;58.31
71996;BME280;59862;47.732;7.346;2022-07-06T02:01:19;98617.45;;;16.90;58.36
71996;BME280;59862;47.732;7.346;2022-07-06T02:03:42;98603.66;;;16.84;58.63
71996;BME280;59862;47.732;7.346;2022-07-06T02:06:11;98607.34;;;16.78;59.02
71996;BME280;59862;47.732;7.346;2022-07-06T02:08:40;98611.67;;;16.76;58.83
71996;BME280;59862;47.732;7.346;2022-07-06T02:11:08;98609.42;;;16.72;58.92
71996;BME280;59862;47.732;7.346;2022-07-06T02:13:37;98607.98;;;16.68;59.03
71996;BME280;59862;47.732;7.346;2022-07-06T02:16:04;98603.38;;;16.66;59.19
71996;BME280;59862;47.732;7.346;2022-07-06T02:18:32;98607.46;;;16.63;59.29
71996;BME280;59862;47.732;7.346;2022-07-06T02:21:00;98606.50;;;16.65;59.22
71996;BME280;59862;47.732;7.346;2022-07-06T02:23:27;98607.98;;;16.59;59.12
71996;BME280;59862;47.732;7.346;2022-07-06T02:25:55;98602.97;;;16.55;58.94
71996;BME280;59862;47.732;7.346;2022-07-06T02:28:22;98605.09;;;16.52;58.91
71996;BME280;59862;47.732;7.346;2022-07-06T02:30:49;98601.15;;;16.53;58.82
71996;BME280;59862;47.732;7.346;2022-07-06T02:33:17;98606.70;;;16.53;58.93
71996;BME280;59862;47.732;7.346;2022-07-06T02:35:44;98604.30;;;16.51;58.59
71996;BME280;59862;47.732;7.346;2022-07-06T02:38:12;98608.83;;;16.49;58.48
71996;BME280;59862;47.732;7.346;2022-07-06T02:40:40;98602.47;;;16.49;58.80
71996;BME280;59862;47.732;7.346;2022-07-06T02:43:07;98607.23;;;16.48;58.69
71996;BME280;59862;47.732;7.346;2022-07-06T02:45:35;98612.99;;;16.49;58.67
71996;BME280;59862;47.732;7.346;2022-07-06T02:48:03;98615.92;;;16.47;58.98
71996;BME280;59862;47.732;7.346;2022-07-06T02:50:30;98620.09;;;16.47;58.87
71996;BME280;59862;47.732;7.346;2022-07-06T02:52:58;98619.50;;;16.47;58.95
71996;BME280;59862;47.732;7.346;2022-07-06T02:55:27;98618.86;;;16.44;59.09
71996;BME280;59862;47.732;7.346;2022-07-06T02:57:54;98625.00;;;16.44;59.41
71996;BME280;59862;47.732;7.346;2022-07-06T03:00:22;98630.70;;;16.41;59.62
71996;BME280;59862;47.732;7.346;2022-07-06T03:02:49;98626.27;;;16.37;59.56
71996;BME280;59862;47.732;7.346;2022-07-06T03:05:17;98629.19;;;16.34;59.65
71996;BME280;59862;47.732;7.346;2022-07-06T03:07:44;98631.75;;;16.33;59.71
71996;BME280;59862;47.732;7.346;2022-07-06T03:10:12;98640.02;;;16.30;59.98
71996;BME280;59862;47.732;7.346;2022-07-06T03:12:39;98644.11;;;16.26;60.50
71996;BME280;59862;47.732;7.346;2022-07-06T03:15:07;98643.43;;;16.23;60.54
71996;BME280;59862;47.732;7.346;2022-07-06T03:17:38;98646.72;;;16.19;60.77
71996;BME280;59862;47.732;7.346;2022-07-06T03:20:06;98643.08;;;16.15;61.22
71996;BME280;59862;47.732;7.346;2022-07-06T03:22:34;98650.91;;;16.09;61.48
71996;BME280;59862;47.732;7.346;2022-07-06T03:25:01;98648.43;;;16.04;61.76
71996;BME280;59862;47.732;7.346;2022-07-06T03:27:29;98648.36;;;16.01;61.65
71996;BME280;59862;47.732;7.346;2022-07-06T03:29:56;98652.09;;;15.99;61.71
71996;BME280;59862;47.732;7.346;2022-07-06T03:32:24;98649.61;;;15.94;62.00
71996;BME280;59862;47.732;7.346;2022-07-06T03:34:51;98656.84;;;15.89;62.11
71996;BME280;59862;47.732;7.346;2022-07-06T03:37:20;98657.50;;;15.82;62.73
71996;BME280;59862;47.732;7.346;2022-07-06T03:39:47;98661.95;;;15.77;63.19
71996;BME280;59862;47.732;7.346;2022-07-06T03:42:14;98656.05;;;15.69;63.09
71996;BME280;59862;47.732;7.346;2022-07-06T03:44:42;98657.94;;;15.74;63.05
71996;BME280;59862;47.732;7.346;2022-07-06T03:47:09;98653.34;;;15.72;63.31
71996;BME280;59862;47.732;7.346;2022-07-06T03:49:37;98657.13;;;15.74;63.09
71996;BME280;59862;47.732;7.346;2022-07-06T03:52:04;98660.42;;;15.70;63.53
71996;BME280;59862;47.732;7.346;2022-07-06T03:54:32;98661.66;;;15.72;63.08
71996;BME280;59862;47.732;7.346;2022-07-06T03:56:59;98659.91;;;15.74;63.31
71996;BME280;59862;47.732;7.346;2022-07-06T03:59:27;98662.17;;;15.68;64.03
71996;BME280;59862;47.732;7.346;2022-07-06T04:01:54;98662.24;;;15.72;62.99
71996;BME280;59862;47.732;7.346;2022-07-06T04:04:21;98660.64;;;15.71;62.96
71996;BME280;59862;47.732;7.346;2022-07-06T04:06:49;98660.20;;;15.78;61.92
71996;BME280;59862;47.732;7.346;2022-07-06T04:09:16;98658.08;;;15.81;61.10
71996;BME280;59862;47.732;7.346;2022-07-06T04:11:44;98662.39;;;15.89;61.77
71996;BME280;59862;47.732;7.346;2022-07-06T04:14:11;98655.96;;;15.94;61.01
71996;BME280;59862;47.732;7.346;2022-07-06T04:16:39;98657.63;;;15.99;60.68
71996;BME280;59862;47.732;7.346;2022-07-06T04:19:06;98656.30;;;16.12;60.43
71996;BME280;59862;47.732;7.346;2022-07-06T04:21:33;98656.72;;;16.24;60.36
71996;BME280;59862;47.732;7.346;2022-07-06T04:24:01;98652.72;;;16.31;59.40
71996;BME280;59862;47.732;7.346;2022-07-06T04:26:28;98658.12;;;16.33;58.95
71996;BME280;59862;47.732;7.346;2022-07-06T04:28:56;98656.21;;;16.37;58.94
71996;BME280;59862;47.732;7.346;2022-07-06T04:31:23;98663.37;;;16.38;58.46
71996;BME280;59862;47.732;7.346;2022-07-06T04:33:50;98660.50;;;16.44;58.16
71996;BME280;59862;47.732;7.346;2022-07-06T04:36:18;98660.94;;;16.46;58.15
71996;BME280;59862;47.732;7.346;2022-07-06T04:38:45;98657.11;;;16.55;57.97
71996;BME280;59862;47.732;7.346;2022-07-06T04:41:13;98661.55;;;16.59;58.04
71996;BME280;59862;47.732;7.346;2022-07-06T04:43:41;98663.67;;;16.66;57.49
71996;BME280;59862;47.732;7.346;2022-07-06T04:46:10;98668.55;;;16.63;57.60
71996;BME280;59862;47.732;7.346;2022-07-06T04:48:37;98665.28;;;16.67;57.71
71996;BME280;59862;47.732;7.346;2022-07-06T04:51:05;98669.08;;;16.68;57.43
71996;BME280;59862;47.732;7.346;2022-07-06T04:53:33;98665.78;;;16.63;57.52
71996;BME280;59862;47.732;7.346;2022-07-06T04:56:00;98670.69;;;16.60;57.94
71996;BME280;59862;47.732;7.346;2022-07-06T04:58:27;98669.81;;;16.65;57.88
71996;BME280;59862;47.732;7.346;2022-07-06T05:00:55;98666.14;;;16.71;57.62
71996;BME280;59862;47.732;7.346;2022-07-06T05:03:22;98668.18;;;16.74;57.81
71996;BME280;59862;47.732;7.346;2022-07-06T05:05:50;98665.46;;;16.77;57.61
71996;BME280;59862;47.732;7.346;2022-07-06T05:08:17;98669.22;;;16.89;57.46
71996;BME280;59862;47.732;7.346;2022-07-06T05:10:45;98668.19;;;16.97;57.39
71996;BME280;59862;47.732;7.346;2022-07-06T05:13:12;98673.21;;;17.01;57.43
71996;BME280;59862;47.732;7.346;2022-07-06T05:15:40;98672.63;;;17.01;57.36
71996;BME280;59862;47.732;7.346;2022-07-06T05:18:07;98685.24;;;17.08;57.43
71996;BME280;59862;47.732;7.346;2022-07-06T05:20:34;98679.16;;;17.13;57.40
71996;BME280;59862;47.732;7.346;2022-07-06T05:23:02;98675.14;;;17.23;57.10
71996;BME280;59862;47.732;7.346;2022-07-06T05:25:29;98679.89;;;17.09;57.00
71996;BME280;59862;47.732;7.346;2022-07-06T05:27:58;98678.50;;;17.09;56.95
71996;BME280;59862;47.732;7.346;2022-07-06T05:30:26;98680.05;;;17.07;57.21
71996;BME280;59862;47.732;7.346;2022-07-06T05:32:53;98679.84;;;17.06;57.47
71996;BME280;59862;47.732;7.346;2022-07-06T05:35:21;98682.57;;;17.16;57.17
71996;BME280;59862;47.732;7.346;2022-07-06T05:37:48;98680.59;;;17.29;57.55
71996;BME280;59862;47.732;7.346;2022-07-06T05:40:15;98687.06;;;17.37;57.63
71996;BME280;59862;47.732;7.346;2022-07-06T05:42:43;98685.39;;;17.46;56.95
71996;BME280;59862;47.732;7.346;2022-07-06T05:45:10;98688.78;;;17.58;56.88
71996;BME280;59862;47.732;7.346;2022-07-06T05:47:38;98688.58;;;17.70;56.46
71996;BME280;59862;47.732;7.346;2022-07-06T05:50:23;98689.94;;;17.84;56.39
71996;BME280;59862;47.732;7.346;2022-07-06T05:52:59;98688.67;;;17.78;55.75
71996;BME280;59862;47.732;7.346;2022-07-06T05:55:27;98691.24;;;17.77;56.39
71996;BME280;59862;47.732;7.346;2022-07-06T05:57:54;98696.73;;;17.86;55.82
71996;BME280;59862;47.732;7.346;2022-07-06T06:00:23;98694.04;;;17.93;55.96
71996;BME280;59862;47.732;7.346;2022-07-06T06:02:52;98693.36;;;17.87;55.78
71996;BME280;59862;47.732;7.346;2022-07-06T06:05:20;98698.80;;;17.93;56.27
71996;BME280;59862;47.732;7.346;2022-07-06T06:07:48;98696.56;;;17.89;55.93
71996;BME280;59862;47.732;7.346;2022-07-06T06:10:18;98700.03;;;17.95;55.87
71996;BME280;59862;47.732;7.346;2022-07-06T06:12:46;98694.46;;;18.12;55.84
71996;BME280;59862;47.732;7.346;2022-07-06T06:15:13;98689.73;;;18.16;55.46
71996;BME280;59862;47.732;7.346;2022-07-06T06:17:41;98695.03;;;18.25;55.65
71996;BME280;59862;47.732;7.346;2022-07-06T06:20:10;98696.96;;;18.37;55.74
71996;BME280;59862;47.732;7.346;2022-07-06T06:22:56;98699.38;;;18.59;55.28
71996;BME280;59862;47.732;7.346;2022-07-06T06:25:31;98692.72;;;18.67;55.36
71996;BME280;59862;47.732;7.346;2022-07-06T06:27:59;98697.37;;;18.77;55.01
71996;BME280;59862;47.732;7.346;2022-07-06T06:30:27;98692.02;;;18.78;54.26
71996;BME280;59862;47.732;7.346;2022-07-06T06:33:14;98694.62;;;18.80;54.30
71996;BME280;59862;47.732;7.346;2022-07-06T06:35:38;98690.39;;;18.93;54.34
71996;BME280;59862;47.732;7.346;2022-07-06T06:38:06;98700.30;;;18.87;54.24
71996;BME280;59862;47.732;7.346;2022-07-06T06:40:35;98701.30;;;18.89;54.62
71996;BME280;59862;47.732;7.346;2022-07-06T06:43:02;98697.39;;;18.97;54.31
71996;BME280;59862;47.732;7.346;2022-07-06T06:45:30;98691.72;;;19.10;53.74
71996;BME280;59862;47.732;7.346;2022-07-06T06:47:57;98690.94;;;19.13;53.86
71996;BME280;59862;47.732;7.346;2022-07-06T06:50:25;98695.72;;;19.13;54.41
71996;BME280;59862;47.732;7.346;2022-07-06T06:52:52;98696.83;;;19.28;53.60
71996;BME280;59862;47.732;7.346;2022-07-06T06:55:20;98687.34;;;19.40;53.59
71996;BME280;59862;47.732;7.346;2022-07-06T06:57:47;98689.45;;;19.26;53.40
71996;BME280;59862;47.732;7.346;2022-07-06T07:00:15;98694.25;;;19.29;53.19
71996;BME280;59862;47.732;7.346;2022-07-06T07:02:43;98697.22;;;19.27;53.43
71996;BME280;59862;47.732;7.346;2022-07-06T07:05:11;98699.05;;;19.32;53.04
71996;BME280;59862;47.732;7.346;2022-07-06T07:07:39;98691.76;;;19.45;53.46
71996;BME280;59862;47.732;7.346;2022-07-06T07:10:07;98691.63;;;19.51;52.87
71996;BME280;59862;47.732;7.346;2022-07-06T07:12:34;98695.11;;;19.61;52.73
71996;BME280;59862;47.732;7.346;2022-07-06T07:15:02;98694.34;;;19.68;52.77
71996;BME280;59862;47.732;7.346;2022-07-06T07:17:29;98696.35;;;19.71;51.91
71996;BME280;59862;47.732;7.346;2022-07-06T07:19:57;98700.11;;;19.65;52.24
71996;BME280;59862;47.732;7.346;2022-07-06T07:22:24;98698.66;;;19.54;52.60
71996;BME280;59862;47.732;7.346;2022-07-06T07:24:52;98697.78;;;19.78;52.68
71996;BME280;59862;47.732;7.346;2022-07-06T07:27:19;98696.87;;;19.94;51.85
71996;BME280;59862;47.732;7.346;2022-07-06T07:29:47;98694.48;;;19.96;51.35
71996;BME280;59862;47.732;7.346;2022-07-06T07:32:14;98701.29;;;20.02;50.88
71996;BME280;59862;47.732;7.346;2022-07-06T07:34:42;98696.25;;;19.91;50.86
71996;BME280;59862;47.732;7.346;2022-07-06T07:37:09;98696.28;;;19.98;50.73
71996;BME280;59862;47.732;7.346;2022-07-06T07:39:37;98699.61;;;20.25;51.19
71996;BME280;59862;47.732;7.346;2022-07-06T07:42:05;98702.81;;;20.31;50.40
71996;BME280;59862;47.732;7.346;2022-07-06T07:44:32;98717.64;;;20.42;50.46
71996;BME280;59862;47.732;7.346;2022-07-06T07:46:59;98709.27;;;20.42;49.68
71996;BME280;59862;47.732;7.346;2022-07-06T07:49:27;98713.88;;;20.54;49.79
71996;BME280;59862;47.732;7.346;2022-07-06T07:51:54;98709.50;;;20.61;50.08
71996;BME280;59862;47.732;7.346;2022-07-06T07:54:22;98710.72;;;20.70;49.58
71996;BME280;59862;47.732;7.346;2022-07-06T07:56:49;98708.34;;;20.79;49.53
71996;BME280;59862;47.732;7.346;2022-07-06T07:59:16;98707.11;;;20.63;49.46
71996;BME280;59862;47.732;7.346;2022-07-06T08:01:44;98711.92;;;20.80;49.70
71996;BME280;59862;47.732;7.346;2022-07-06T08:04:11;98711.58;;;20.96;49.05
71996;BME280;59862;47.732;7.346;2022-07-06T08:06:39;98715.17;;;20.96;49.17
71996;BME280;59862;47.732;7.346;2022-07-06T08:09:06;98711.77;;;21.18;49.18
71996;BME280;59862;47.732;7.346;2022-07-06T08:11:34;98712.98;;;21.38;48.55
71996;BME280;59862;47.732;7.346;2022-07-06T08:14:03;98714.59;;;21.57;48.13
71996;BME280;59862;47.732;7.346;2022-07-06T08:16:31;98714.92;;;21.84;46.99
71996;BME280;59862;47.732;7.346;2022-07-06T08:18:59;98716.28;;;21.95;46.93
71996;BME280;59862;47.732;7.346;2022-07-06T08:21:27;98717.78;;;21.59;46.60
71996;BME280;59862;47.732;7.346;2022-07-06T08:23:55;98715.56;;;21.66;46.54
71996;BME280;59862;47.732;7.346;2022-07-06T08:26:24;98712.55;;;21.75;47.06
71996;BME280;59862;47.732;7.346;2022-07-06T08:28:52;98716.87;;;22.08;46.49
71996;BME280;59862;47.732;7.346;2022-07-06T08:31:19;98712.02;;;22.27;45.29
71996;BME280;59862;47.732;7.346;2022-07-06T08:33:47;98706.48;;;22.49;44.73
71996;BME280;59862;47.732;7.346;2022-07-06T08:36:15;98706.23;;;22.59;44.70
71996;BME280;59862;47.732;7.346;2022-07-06T08:38:42;98712.24;;;22.21;45.76
71996;BME280;59862;47.732;7.346;2022-07-06T08:41:10;98713.34;;;22.41;45.87
71996;BME280;59862;47.732;7.346;2022-07-06T08:43:38;98710.36;;;22.80;45.05
71996;BME280;59862;47.732;7.346;2022-07-06T08:46:07;98714.63;;;22.99;42.70
71996;BME280;59862;47.732;7.346;2022-07-06T08:48:39;98718.98;;;22.70;43.54
71996;BME280;59862;47.732;7.346;2022-07-06T08:51:08;98726.28;;;22.94;43.68
71996;BME280;59862;47.732;7.346;2022-07-06T08:53:35;98720.31;;;23.14;42.97
71996;BME280;59862;47.732;7.346;2022-07-06T08:56:04;98716.83;;;22.99;43.13
71996;BME280;59862;47.732;7.346;2022-07-06T08:58:31;98719.30;;;23.42;42.88
71996;BME280;59862;47.732;7.346;2022-07-06T09:01:00;98725.10;;;23.17;42.87
71996;BME280;59862;47.732;7.346;2022-07-06T09:03:28;98723.48;;;23.46;43.08
71996;BME280;59862;47.732;7.346;2022-07-06T09:05:58;98727.91;;;23.43;43.45
71996;BME280;59862;47.732;7.346;2022-07-06T09:08:27;98723.48;;;23.46;43.48
71996;BME280;59862;47.732;7.346;2022-07-06T09:10:57;98723.83;;;23.74;42.40
71996;BME280;59862;47.732;7.346;2022-07-06T09:13:24;98733.77;;;23.82;42.04
71996;BME280;59862;47.732;7.346;2022-07-06T09:15:52;98731.84;;;24.13;42.07
71996;BME280;59862;47.732;7.346;2022-07-06T09:18:21;98725.61;;;24.32;41.57
71996;BME280;59862;47.732;7.346;2022-07-06T09:20:49;98729.27;;;24.44;42.13
71996;BME280;59862;47.732;7.346;2022-07-06T09:23:17;98735.32;;;24.73;40.85
71996;BME280;59862;47.732;7.346;2022-07-06T09:25:48;98738.84;;;25.08;40.67
71996;BME280;59862;47.732;7.346;2022-07-06T09:28:16;98750.30;;;24.63;39.27
71996;BME280;59862;47.732;7.346;2022-07-06T09:30:43;98749.03;;;24.68;40.54
71996;BME280;59862;47.732;7.346;2022-07-06T09:33:12;98741.91;;;24.90;39.86
71996;BME280;59862;47.732;7.346;2022-07-06T09:35:40;98751.56;;;24.89;39.18
71996;BME280;59862;47.732;7.346;2022-07-06T09:38:13;98740.78;;;24.69;39.29
71996;BME280;59862;47.732;7.346;2022-07-06T09:40:42;98754.44;;;24.85;39.87
71996;BME280;59862;47.732;7.346;2022-07-06T09:43:15;98749.66;;;24.98;40.07
71996;BME280;59862;47.732;7.346;2022-07-06T09:45:45;98744.00;;;25.24;39.79
71996;BME280;59862;47.732;7.346;2022-07-06T09:48:15;98747.86;;;25.34;39.15
71996;BME280;59862;47.732;7.346;2022-07-06T09:51:00;98745.70;;;25.45;38.91
71996;BME280;59862;47.732;7.346;2022-07-06T09:53:24;98748.45;;;25.60;38.44
71996;BME280;59862;47.732;7.346;2022-07-06T09:55:54;98745.38;;;25.63;38.40
71996;BME280;59862;47.732;7.346;2022-07-06T09:58:22;98754.17;;;25.30;37.68
71996;BME280;59862;47.732;7.346;2022-07-06T10:00:50;98745.08;;;25.46;38.23
71996;BME280;59862;47.732;7.346;2022-07-06T10:03:19;98740.80;;;25.49;38.10
71996;BME280;59862;47.732;7.346;2022-07-06T10:05:47;98748.52;;;25.80;37.65
71996;BME280;59862;47.732;7.346;2022-07-06T10:08:16;98744.67;;;26.14;36.87
71996;BME280;59862;47.732;7.346;2022-07-06T10:10:44;98748.14;;;26.61;35.51
71996;BME280;59862;47.732;7.346;2022-07-06T10:13:14;98749.98;;;27.24;33.97
71996;BME280;59862;47.732;7.346;2022-07-06T10:15:43;98745.02;;;28.01;32.38
71996;BME280;59862;47.732;7.346;2022-07-06T10:18:11;98745.14;;;28.26;31.66
71996;BME280;59862;47.732;7.346;2022-07-06T10:20:39;98747.41;;;29.32;31.06
71996;BME280;59862;47.732;7.346;2022-07-06T10:23:08;98742.17;;;30.42;30.39
71996;BME280;59862;47.732;7.346;2022-07-06T10:25:36;98739.41;;;31.40;26.55
71996;BME280;59862;47.732;7.346;2022-07-06T10:28:04;98741.23;;;31.74;26.87
71996;BME280;59862;47.732;7.346;2022-07-06T10:30:33;98734.30;;;32.48;26.60
71996;BME280;59862;47.732;7.346;2022-07-06T10:33:01;98729.76;;;33.02;26.23
71996;BME280;59862;47.732;7.346;2022-07-06T10:35:29;98728.45;;;33.17;24.72
71996;BME280;59862;47.732;7.346;2022-07-06T10:38:04;98731.03;;;33.01;24.64
71996;BME280;59862;47.732;7.346;2022-07-06T10:40:38;98734.27;;;33.88;24.23
71996;BME280;59862;47.732;7.346;2022-07-06T10:43:21;98726.32;;;33.35;24.66
71996;BME280;59862;47.732;7.346;2022-07-06T10:45:50;98718.40;;;31.37;24.94
71996;BME280;59862;47.732;7.346;2022-07-06T10:48:19;98722.48;;;31.27;26.71
71996;BME280;59862;47.732;7.346;2022-07-06T10:50:53;98724.48;;;33.14;25.05
71996;BME280;59862;47.732;7.346;2022-07-06T10:53:25;98724.22;;;32.29;24.88
71996;BME280;59862;47.732;7.346;2022-07-06T10:55:57;98724.58;;;31.49;26.79
71996;BME280;59862;47.732;7.346;2022-07-06T10:58:48;98716.38;;;33.31;24.58
71996;BME280;59862;47.732;7.346;2022-07-06T11:01:18;98715.63;;;33.50;23.36
71996;BME280;59862;47.732;7.346;2022-07-06T11:06:21;98706.16;;;34.11;22.45
71996;BME280;59862;47.732;7.346;2022-07-06T11:08:57;98704.16;;;33.78;22.62
71996;BME280;59862;47.732;7.346;2022-07-06T11:16:58;98705.66;;;34.51;22.99
71996;BME280;59862;47.732;7.346;2022-07-06T11:19:14;98708.20;;;34.93;22.84
71996;BME280;59862;47.732;7.346;2022-07-06T11:24:25;98704.25;;;36.06;21.74
71996;BME280;59862;47.732;7.346;2022-07-06T11:26:53;98687.52;;;35.08;21.88
71996;BME280;59862;47.732;7.346;2022-07-06T11:29:22;98693.56;;;33.83;23.93
71996;BME280;59862;47.732;7.346;2022-07-06T11:31:56;98687.02;;;34.21;22.63
71996;BME280;59862;47.732;7.346;2022-07-06T11:34:29;98690.09;;;34.67;23.09
71996;BME280;59862;47.732;7.346;2022-07-06T11:36:59;98687.45;;;34.44;23.32
71996;BME280;59862;47.732;7.346;2022-07-06T11:39:28;98686.59;;;34.52;23.43
71996;BME280;59862;47.732;7.346;2022-07-06T11:41:57;98686.42;;;35.20;23.13
71996;BME280;59862;47.732;7.346;2022-07-06T11:44:25;98681.76;;;35.38;22.17
71996;BME280;59862;47.732;7.346;2022-07-06T11:46:53;98682.91;;;35.46;22.03
71996;BME280;59862;47.732;7.346;2022-07-06T11:49:25;98683.78;;;35.17;22.82
71996;BME280;59862;47.732;7.346;2022-07-06T11:51:52;98683.78;;;34.62;23.15
71996;BME280;59862;47.732;7.346;2022-07-06T11:54:21;98677.67;;;34.84;23.05
71996;BME280;59862;47.732;7.346;2022-07-06T11:56:51;98676.83;;;35.58;22.43
71996;BME280;59862;47.732;7.346;2022-07-06T11:59:24;98676.86;;;36.35;22.15
71996;BME280;59862;47.732;7.346;2022-07-06T12:02:00;98673.05;;;35.77;21.99
71996;BME280;59862;47.732;7.346;2022-07-06T12:04:28;98674.79;;;35.89;22.40
71996;BME280;59862;47.732;7.346;2022-07-06T12:07:01;98678.54;;;36.11;22.09
71996;BME280;59862;47.732;7.346;2022-07-06T12:09:39;98663.88;;;34.39;23.83
71996;BME280;59862;47.732;7.346;2022-07-06T12:12:03;98658.59;;;34.71;23.52
71996;BME280;59862;47.732;7.346;2022-07-06T12:14:33;98655.55;;;35.24;23.64
71996;BME280;59862;47.732;7.346;2022-07-06T12:17:07;98657.00;;;35.10;22.61
71996;BME280;59862;47.732;7.346;2022-07-06T12:19:35;98646.95;;;33.77;24.56
71996;BME280;59862;47.732;7.346;2022-07-06T12:22:04;98648.71;;;33.75;25.50
71996;BME280;59862;47.732;7.346;2022-07-06T12:24:33;98656.46;;;33.35;25.25
71996;BME280;59862;47.732;7.346;2022-07-06T12:27:17;98654.70;;;33.86;24.30
71996;BME280;59862;47.732;7.346;2022-07-06T12:29:40;98652.95;;;34.18;24.41
71996;BME280;59862;47.732;7.346;2022-07-06T12:32:18;98642.71;;;32.96;24.92
71996;BME280;59862;47.732;7.346;2022-07-06T12:34:41;98643.95;;;33.00;25.71
71996;BME280;59862;47.732;7.346;2022-07-06T12:37:11;98639.23;;;34.71;23.68
71996;BME280;59862;47.732;7.346;2022-07-06T12:39:48;98648.58;;;36.33;22.50
71996;BME280;59862;47.732;7.346;2022-07-06T12:42:16;98641.72;;;37.67;20.56
71996;BME280;59862;47.732;7.346;2022-07-06T12:44:48;98638.26;;;36.88;20.49
71996;BME280;59862;47.732;7.346;2022-07-06T12:47:24;98630.74;;;38.42;19.84
71996;BME280;59862;47.732;7.346;2022-07-06T12:50:09;98636.50;;;38.81;19.63
71996;BME280;59862;47.732;7.346;2022-07-06T12:52:38;98626.72;;;37.35;21.02
71996;BME280;59862;47.732;7.346;2022-07-06T12:55:07;98627.31;;;38.32;19.68
71996;BME280;59862;47.732;7.346;2022-07-06T12:57:45;98629.31;;;35.26;23.10
71996;BME280;59862;47.732;7.346;2022-07-06T13:00:13;98628.87;;;38.28;20.27
71996;BME280;59862;47.732;7.346;2022-07-06T13:02:44;98636.25;;;40.11;18.70
71996;BME280;59862;47.732;7.346;2022-07-06T13:05:14;98633.09;;;38.55;19.52
71996;BME280;59862;47.732;7.346;2022-07-06T13:07:47;98638.38;;;37.48;20.94
71996;BME280;59862;47.732;7.346;2022-07-06T13:10:16;98634.83;;;36.68;22.13
71996;BME280;59862;47.732;7.346;2022-07-06T13:12:44;98624.55;;;37.46;20.13
71996;BME280;59862;47.732;7.346;2022-07-06T13:15:12;98611.56;;;37.29;20.63
71996;BME280;59862;47.732;7.346;2022-07-06T13:17:40;98628.11;;;35.63;22.94
71996;BME280;59862;47.732;7.346;2022-07-06T13:20:10;98627.75;;;35.66;22.87